Time;durP1;ratioP1;P1;durP2;ratioP2;P2;SDS_P1;SDS_P2;PMS_P1;PMS_P2;Temp;Humidity;BMP_temperature;BMP_pressure;BME280_temperature;BME280_humidity;BME280_pressure;Samples;Min_cycle;Max_cycle;Signal;HPM_P1;HPM_P2
2023/09/07 00:01:11;;;;;;;7.20;4.78;;;;;;;22.46;47.91;93909.25;4748027;30;20060;-94
2023/09/07 00:03:40;;;;;;;5.63;4.63;;;;;;;22.48;47.87;93914.97;4759842;30;20047;-93
2023/09/07 00:06:11;;;;;;;6.18;4.63;;;;;;;22.48;47.95;93903.97;4788602;30;20051;-93
2023/09/07 00:08:39;;;;;;;6.20;4.45;;;;;;;22.48;47.69;93903.22;4766031;30;20064;-92
2023/09/07 00:11:06;;;;;;;8.57;5.10;;;;;;;22.48;47.95;93905.97;4766363;30;20019;-92
2023/09/07 00:13:33;;;;;;;6.78;4.38;;;;;;;22.48;48.07;93897.72;4769732;30;20073;-92
2023/09/07 00:16:00;;;;;;;6.75;4.55;;;;;;;22.47;48.08;93898.97;4763935;30;20038;-94
2023/09/07 00:18:26;;;;;;;4.75;4.10;;;;;;;22.47;47.77;93893.47;4734996;29;20044;-93
2023/09/07 00:20:53;;;;;;;5.30;4.32;;;;;;;22.47;47.90;93901.72;4770639;30;20059;-92
2023/09/07 00:23:21;;;;;;;6.53;4.55;;;;;;;22.45;48.07;93896.75;4763409;30;20047;-93
2023/09/07 00:25:57;;;;;;;5.18;4.65;;;;;;;22.45;48.06;93902.25;4755212;30;20056;-93
2023/09/07 00:28:22;;;;;;;5.05;3.88;;;;;;;22.46;47.74;93898.22;4760349;30;20056;-93
2023/09/07 00:30:54;;;;;;;5.75;4.40;;;;;;;22.46;47.88;93889.97;4771727;30;20081;-92
2023/09/07 00:33:20;;;;;;;4.63;3.92;;;;;;;22.46;48.00;93889.22;4790481;29;20069;-94
2023/09/07 00:35:53;;;;;;;6.57;4.07;;;;;;;22.46;47.75;93894.72;4769969;29;20087;-92
2023/09/07 00:38:19;;;;;;;5.88;4.35;;;;;;;22.45;47.76;93896.75;4770894;29;20170;-93
2023/09/07 00:40:53;;;;;;;6.07;4.60;;;;;;;22.44;47.79;93898.00;4795519;29;20050;-92
2023/09/07 00:43:25;;;;;;;5.60;4.10;;;;;;;22.44;47.98;93895.25;4776234;30;20051;-92
2023/09/07 00:45:54;;;;;;;4.93;4.43;;;;;;;22.44;47.96;93892.50;4744567;29;20039;-93
2023/09/07 00:48:20;;;;;;;5.10;4.05;;;;;;;22.45;48.14;93893.25;4794254;29;20088;-93
2023/09/07 00:50:48;;;;;;;4.93;4.30;;;;;;;22.45;48.13;93884.97;4781935;30;20041;-93
2023/09/07 00:53:27;;;;;;;6.38;4.47;;;;;;;22.45;47.97;93882.97;4790827;29;20088;-93
2023/09/07 00:56:01;;;;;;;5.35;4.25;;;;;;;22.45;47.83;93885.72;4767307;29;20532;-94
2023/09/07 00:58:28;;;;;;;5.47;4.10;;;;;;;22.43;48.01;93882.75;4747758;30;20052;-93
2023/09/07 01:00:53;;;;;;;6.75;4.25;;;;;;;22.44;47.81;93875.97;4736676;30;20083;-92
2023/09/07 01:03:34;;;;;;;5.88;4.65;;;;;;;22.43;48.03;93880.00;4738665;29;20031;-93
2023/09/07 01:06:22;;;;;;;6.22;4.50;;;;;;;22.43;47.86;93882.00;4812376;29;20050;-93
2023/09/07 01:09:13;;;;;;;4.65;3.88;;;;;;;22.43;47.91;93880.00;4791503;29;20134;-93
2023/09/07 01:11:53;;;;;;;4.75;4.18;;;;;;;22.43;47.99;93880.00;4765982;29;20046;-93
2023/09/07 01:14:22;;;;;;;7.22;4.43;;;;;;;22.42;47.86;93878.50;4952512;23;20057;-94
2023/09/07 01:17:14;;;;;;;5.30;4.25;;;;;;;22.41;48.15;93873.53;4823289;29;20098;-93
2023/09/07 01:19:47;;;;;;;7.15;3.95;;;;;;;22.41;47.96;93877.00;4832794;29;20429;-93
2023/09/07 01:22:16;;;;;;;4.57;3.72;;;;;;;22.42;48.06;93877.75;4845064;29;20106;-94
2023/09/07 01:24:45;;;;;;;4.63;3.95;;;;;;;22.42;47.77;93878.50;4862486;29;20049;-94
2023/09/07 01:27:13;;;;;;;10.18;4.30;;;;;;;22.41;47.99;93873.53;4814262;29;20049;-93
2023/09/07 01:29:55;;;;;;;6.55;4.00;;;;;;;22.39;47.99;93870.53;4824027;29;20071;-93
2023/09/07 01:32:21;;;;;;;4.50;3.67;;;;;;;22.42;48.04;93864.00;4774548;29;20027;-93
2023/09/07 01:35:03;;;;;;;5.15;4.00;;;;;;;22.41;47.98;93874.25;4796800;29;20058;-92
2023/09/07 01:37:29;;;;;;;4.15;3.75;;;;;;;22.42;47.92;93870.25;4753499;29;20053;-93
2023/09/07 01:40:07;;;;;;;4.60;4.05;;;;;;;22.40;48.01;93869.28;4804698;29;20043;-92
2023/09/07 01:42:36;;;;;;;5.28;3.95;;;;;;;22.40;48.09;93874.78;4813118;29;20050;-92
2023/09/07 01:45:26;;;;;;;4.40;3.78;;;;;;;22.41;47.90;93874.25;4773498;29;20047;-94
2023/09/07 01:48:03;;;;;;;6.50;4.15;;;;;;;22.39;47.89;93878.81;4795395;29;20583;-92
2023/09/07 01:50:29;;;;;;;4.85;3.85;;;;;;;22.41;47.92;93881.78;4734394;30;20033;-93
2023/09/07 01:52:58;;;;;;;4.68;3.78;;;;;;;22.40;48.01;93872.78;4742616;30;20055;-93
2023/09/07 01:55:44;;;;;;;6.00;3.75;;;;;;;22.40;47.84;93872.78;4708083;30;20037;-92
2023/09/07 01:58:11;;;;;;;5.95;3.90;;;;;;;22.41;47.68;93857.72;4692239;30;20100;-92
2023/09/07 02:00:39;;;;;;;4.72;3.67;;;;;;;22.39;47.85;93870.53;4842068;23;20049;-93
2023/09/07 02:03:08;;;;;;;5.85;3.78;;;;;;;22.39;48.13;93871.28;4879084;29;20079;-94
2023/09/07 02:05:33;;;;;;;4.63;3.67;;;;;;;22.40;47.85;93867.25;4860974;29;20049;-93
2023/09/07 02:07:59;;;;;;;6.60;3.97;;;;;;;22.41;47.69;93874.25;4837139;29;20128;-94
2023/09/07 02:10:25;;;;;;;4.85;3.72;;;;;;;22.39;47.86;93865.03;4874861;23;20046;-93
2023/09/07 02:12:52;;;;;;;4.68;3.80;;;;;;;22.39;47.80;93868.53;4863746;29;20049;-92
2023/09/07 02:15:23;;;;;;;5.20;3.92;;;;;;;22.39;47.75;93860.28;4856859;29;20056;-92
2023/09/07 02:17:57;;;;;;;4.47;3.65;;;;;;;22.39;47.82;93862.28;4854381;29;20045;-92
2023/09/07 02:20:24;;;;;;;5.20;4.00;;;;;;;22.39;47.57;93854.75;4848160;29;20045;-93
2023/09/07 02:22:51;;;;;;;5.10;3.90;;;;;;;22.41;47.69;93862.50;4835449;29;20037;-93
2023/09/07 02:25:23;;;;;;;4.43;3.97;;;;;;;22.38;47.81;93858.03;4840334;29;20056;-93
2023/09/07 02:27:50;;;;;;;4.97;3.78;;;;;;;22.37;47.94;93860.06;4826057;29;20038;-93
2023/09/07 02:30:16;;;;;;;4.55;3.85;;;;;;;22.38;47.94;93860.78;4923637;23;20064;-93
2023/09/07 02:32:46;;;;;;;4.80;3.67;;;;;;;22.39;47.62;93865.03;4852261;29;20025;-92
2023/09/07 02:35:13;;;;;;;4.33;3.60;;;;;;;22.37;47.94;93857.28;4895934;24;20061;-92
2023/09/07 02:37:38;;;;;;;5.05;3.70;;;;;;;22.39;47.58;93863.03;4900035;29;20045;-92
2023/09/07 02:40:29;;;;;;;5.88;4.18;;;;;;;22.36;47.88;93855.81;4910826;29;20039;-92
2023/09/07 02:43:00;;;;;;;5.68;3.63;;;;;;;22.37;47.93;93860.06;4879808;29;20084;-93
2023/09/07 02:45:31;;;;;;;4.07;3.60;;;;;;;22.38;47.79;93866.31;4849775;29;20046;-91
2023/09/07 02:48:03;;;;;;;5.38;4.10;;;;;;;22.36;47.80;93858.56;4866997;29;20045;-92
2023/09/07 02:50:33;;;;;;;4.25;3.65;;;;;;;22.37;47.85;93859.31;4837671;23;20049;-93
2023/09/07 02:53:08;;;;;;;4.93;4.10;;;;;;;22.35;47.79;93859.84;4899154;29;20136;-93
2023/09/07 02:55:54;;;;;;;6.00;3.67;;;;;;;22.35;48.07;93856.34;4868922;29;20083;-93
2023/09/07 02:58:22;;;;;;;4.40;4.00;;;;;;;22.34;47.84;93852.84;4854637;29;20072;-92
2023/09/07 03:00:55;;;;;;;6.22;4.13;;;;;;;22.35;47.93;93859.09;4848833;29;20053;-94
2023/09/07 03:03:27;;;;;;;6.15;4.07;;;;;;;22.36;47.92;93852.31;4814942;29;20069;-92
2023/09/07 03:06:25;;;;;;;5.00;3.90;;;;;;;22.34;47.99;93855.59;4783896;29;20111;-92
2023/09/07 03:09:08;;;;;;;5.10;4.10;;;;;;;22.35;47.90;93861.84;4796861;29;20051;-94
2023/09/07 03:11:35;;;;;;;5.53;3.97;;;;;;;22.35;47.87;93861.84;4805779;29;20091;-93
2023/09/07 03:14:09;;;;;;;4.40;3.42;;;;;;;22.33;47.96;93859.59;4785602;29;20061;-93
2023/09/07 03:16:59;;;;;;;4.47;3.78;;;;;;;22.34;47.83;93860.34;4758949;30;20031;-92
2023/09/07 03:19:40;;;;;;;4.50;3.47;;;;;;;22.34;47.88;93857.59;4739335;30;20044;-92
2023/09/07 03:22:06;;;;;;;5.03;3.55;;;;;;;22.33;47.80;93856.84;4749668;30;20052;-92
2023/09/07 03:24:32;;;;;;;4.25;3.67;;;;;;;22.34;47.77;93857.59;4751254;30;20104;-93
2023/09/07 03:27:02;;;;;;;5.50;4.10;;;;;;;22.32;47.90;93855.38;4802759;23;20040;-92
2023/09/07 03:29:30;;;;;;;4.57;3.92;;;;;;;22.40;47.81;93858.25;4802281;29;20134;-92
2023/09/07 03:31:58;;;;;;;8.82;3.83;;;;;;;22.37;47.71;93851.03;4885511;23;20053;-93
2023/09/07 03:34:29;;;;;;;5.80;3.85;;;;;;;22.36;47.74;93858.56;4872045;29;20059;-93
2023/09/07 03:37:11;;;;;;;17.88;9.27;;;;;;;22.39;47.94;93857.50;4853230;29;20049;-94
2023/09/07 03:40:14;;;;;;;10.18;5.50;;;;;;;22.31;46.59;93866.91;4857581;29;20049;-93
2023/09/07 03:42:39;;;;;;;4.85;4.28;;;;;;;22.15;46.26;93861.16;4838471;29;20076;-92
2023/09/07 03:45:08;;;;;;;14.98;6.88;;;;;;;22.11;46.23;93868.22;4868467;23;20041;-92
2023/09/07 03:47:34;;;;;;;13.85;7.45;;;;;;;22.01;46.09;93872.66;4827881;29;20068;-91
2023/09/07 03:50:00;;;;;;;17.00;7.40;;;;;;;21.67;46.70;93872.34;4827233;29;20053;-89
2023/09/07 03:52:29;;;;;;;8.02;5.53;;;;;;;21.60;46.44;93870.94;4825072;29;20088;-92
2023/09/07 03:54:55;;;;;;;38.90;19.00;;;;;;;21.48;46.93;93872.34;4839939;29;20053;-93
2023/09/07 03:57:21;;;;;;;39.85;20.10;;;;;;;21.45;46.78;93865.88;4829226;29;20044;-91
2023/09/07 03:59:47;;;;;;;44.80;19.55;;;;;;;21.45;46.88;93868.63;4823346;29;20429;-91
2023/09/07 04:02:35;;;;;;;33.47;14.57;;;;;;;21.35;46.87;93875.78;4823102;29;20042;-94
2023/09/07 04:05:04;;;;;;;55.03;16.25;;;;;;;;;;4842667;29;20058;-92
2023/09/07 04:07:48;;;;;;;59.43;20.50;;;;;;;21.18;47.47;93862.19;4828627;29;20054;-93
2023/09/07 04:11:04;;;;;;;44.45;13.20;;;;;;;21.15;47.54;93863.22;4810672;29;20046;-94
2023/09/07 04:16:05;;;;;;;52.63;13.77;;;;;;;20.95;48.17;93865.72;5092501;23;20053;-92
2023/09/07 04:18:30;;;;;;;36.10;11.55;;;;;;;20.92;48.14;93866.75;4840913;29;20055;-92
2023/09/07 04:21:11;;;;;;;26.05;10.13;;;;;;;20.91;48.36;93868.00;4845908;29;20033;-93
2023/09/07 04:23:46;;;;;;;26.00;10.60;;;;;;;20.74;48.51;93868.19;4828196;29;20083;-92
2023/09/07 04:26:25;;;;;;;34.10;10.95;;;;;;;20.71;48.72;93867.22;4798665;29;20055;-90
2023/09/07 04:28:50;;;;;;;52.13;11.82;;;;;;;20.73;48.69;93863.94;4746878;30;20602;-89
2023/09/07 04:31:16;;;;;;;26.95;12.77;;;;;;;20.72;48.77;93860.47;4761570;29;20134;-91
2023/09/07 04:33:41;;;;;;;22.77;11.50;;;;;;;20.71;48.63;93863.72;4754744;30;20059;-90
2023/09/07 04:36:12;;;;;;;28.38;11.57;;;;;;;20.61;49.13;93871.53;4758851;30;20043;-89
2023/09/07 04:38:39;;;;;;;24.30;12.60;;;;;;;20.53;49.56;93865.16;4766676;29;20039;-89
2023/09/07 04:41:36;;;;;;;29.08;13.13;;;;;;;20.50;49.54;93863.41;4779900;29;20078;-90
2023/09/07 04:44:07;;;;;;;29.20;12.15;;;;;;;20.48;49.55;93854.94;4778548;30;20071;-92
2023/09/07 04:46:33;;;;;;;27.48;11.18;;;;;;;20.42;49.64;93859.75;4780865;29;20047;-91
2023/09/07 04:48:58;;;;;;;25.02;11.43;;;;;;;20.46;49.45;93855.47;4750687;29;20055;-94
2023/09/07 04:51:25;;;;;;;20.88;8.57;;;;;;;20.36;50.01;93854.25;4761211;30;20125;-89
2023/09/07 04:53:54;;;;;;;19.75;8.43;;;;;;;20.39;49.90;93864.25;4760128;30;20098;-88
2023/09/07 04:56:21;;;;;;;23.83;7.13;;;;;;;20.45;49.61;93859.47;4778425;29;20107;-89
2023/09/07 04:58:51;;;;;;;11.75;6.63;;;;;;;20.37;49.88;93868.75;4813750;29;20043;-88
2023/09/07 05:01:17;;;;;;;13.45;5.88;;;;;;;20.43;49.82;93866.72;4800367;29;20053;-89
2023/09/07 05:03:43;;;;;;;20.48;8.88;;;;;;;20.44;49.77;93863.47;4789051;29;20096;-90
2023/09/07 05:06:10;;;;;;;30.63;8.40;;;;;;;20.31;49.99;93874.28;4776743;29;20074;-89
2023/09/07 05:08:36;;;;;;;26.65;9.25;;;;;;;20.25;50.25;93859.13;4789705;29;20121;-90
2023/09/07 05:11:02;;;;;;;48.63;15.23;;;;;;;20.31;50.15;93863.31;4790481;29;20067;-89
2023/09/07 05:13:28;;;;;;;83.13;37.35;;;;;;;20.43;49.78;93877.72;4796637;29;20564;-90
2023/09/07 05:15:54;;;;;;;52.03;24.35;;;;;;;20.36;50.22;93870.75;4832733;29;20054;-93
2023/09/07 05:18:28;;;;;;;35.13;17.55;;;;;;;20.26;50.44;93864.09;4822591;29;20528;-91
2023/09/07 05:20:53;;;;;;;51.10;17.38;;;;;;;20.31;50.34;93879.78;4808839;29;20425;-93
2023/09/07 05:23:20;;;;;;;59.22;19.08;;;;;;;20.30;50.27;93881.03;4822145;29;20033;-93
2023/09/07 05:25:51;;;;;;;29.08;12.32;;;;;;;20.35;50.28;93880.22;4835620;29;20045;-91
2023/09/07 05:28:17;;;;;;;47.53;15.93;;;;;;;20.50;50.35;93890.88;4849146;29;20041;-91
2023/09/07 05:30:43;;;;;;;25.70;13.07;;;;;;;20.52;50.11;93889.13;4827262;29;20145;-92
2023/09/07 05:33:10;;;;;;;47.08;23.73;;;;;;;20.46;50.18;93885.66;4838777;29;20060;-91
2023/09/07 05:35:36;;;;;;;77.53;32.30;;;;;;;20.47;50.28;93880.91;4843377;29;20045;-92
2023/09/07 05:38:04;;;;;;;71.32;36.28;;;;;;;20.47;50.17;93884.41;4825895;29;20046;-90
2023/09/07 05:40:32;;;;;;;61.80;32.35;;;;;;;20.54;50.03;93885.84;4820285;29;20088;-92
2023/09/07 05:42:59;;;;;;;58.95;32.17;;;;;;;20.43;49.87;93892.19;4857335;29;20044;-91
2023/09/07 05:45:25;;;;;;;45.58;21.95;;;;;;;20.52;49.99;93897.34;4838879;29;20068;-92
2023/09/07 05:47:51;;;;;;;48.50;20.92;;;;;;;20.49;50.14;93897.63;4829838;29;20041;-92
2023/09/07 05:50:18;;;;;;;42.55;15.85;;;;;;;20.64;49.82;93906.22;4864664;29;20044;-91
2023/09/07 05:52:46;;;;;;;81.38;45.20;;;;;;;20.65;49.68;93896.00;4851330;29;20033;-92
2023/09/07 05:55:12;;;;;;;30.52;15.05;;;;;;;20.67;49.84;93896.97;4798576;29;20074;-93
2023/09/07 05:57:37;;;;;;;25.92;10.70;;;;;;;20.77;49.48;93892.63;4793032;29;20057;-90
2023/09/07 06:00:04;;;;;;;21.70;8.93;;;;;;;20.76;49.48;93899.38;4805313;29;20049;-91
2023/09/07 06:02:30;;;;;;;18.60;8.68;;;;;;;20.88;49.30;93900.75;4803054;29;20104;-91
2023/09/07 06:04:56;;;;;;;11.27;6.32;;;;;;;20.78;49.61;93901.63;4794426;29;20103;-94
2023/09/07 06:07:22;;;;;;;10.50;5.75;;;;;;;20.76;49.68;93899.38;4755130;30;20134;-93
2023/09/07 06:09:48;;;;;;;20.60;5.50;;;;;;;20.75;50.09;93900.66;4746625;30;20111;-92
2023/09/07 06:12:40;;;;;;;13.25;8.43;;;;;;;20.65;50.01;93898.72;4756584;29;20062;-93
2023/09/07 06:15:10;;;;;;;11.55;10.10;;;;;;;20.61;50.29;93896.25;4756837;29;20103;-93
2023/09/07 06:17:36;;;;;;;19.88;8.90;;;;;;;20.47;50.75;93892.66;4740676;30;20900;-92
2023/09/07 06:20:05;;;;;;;16.90;10.35;;;;;;;20.58;50.06;93905.53;4719029;30;20068;-92
2023/09/07 06:22:32;;;;;;;12.93;5.88;;;;;;;20.53;50.33;93901.59;4731560;30;20040;-92
2023/09/07 06:25:01;;;;;;;13.40;6.97;;;;;;;20.65;50.25;93904.22;4817627;24;20117;-93
2023/09/07 06:27:34;;;;;;;28.77;17.43;;;;;;;20.71;49.55;93902.94;4890505;29;20056;-93
2023/09/07 06:29:59;;;;;;;17.38;6.60;;;;;;;20.77;50.14;93902.88;4868915;29;20509;-93
2023/09/07 06:32:39;;;;;;;19.25;8.82;;;;;;;20.82;50.04;93911.03;4807547;29;20050;-91
2023/09/07 06:35:10;;;;;;;13.98;7.45;;;;;;;20.69;50.63;93908.19;4808208;29;20526;-93
2023/09/07 06:37:45;;;;;;;33.00;12.88;;;;;;;20.78;50.33;93918.84;4802424;29;20117;-93
2023/09/07 06:40:10;;;;;;;27.90;12.73;;;;;;;20.89;50.26;93912.50;4799085;29;20090;-94
2023/09/07 06:42:39;;;;;;;26.15;10.77;;;;;;;20.92;50.52;93905.22;4800204;29;20059;-93
2023/09/07 06:45:06;;;;;;;59.53;30.10;;;;;;;21.04;50.11;93898.34;4796123;29;20070;-92
2023/09/07 06:47:41;;;;;;;28.77;13.02;;;;;;;21.00;50.56;93897.91;4770302;29;20051;-92
2023/09/07 06:50:07;;;;;;;47.25;22.10;;;;;;;21.08;50.53;93907.03;4758790;29;20767;-92
2023/09/07 06:52:32;;;;;;;73.28;21.80;;;;;;;20.99;50.57;93901.91;4766671;29;20112;-90
2023/09/07 06:55:06;;;;;;;39.15;16.05;;;;;;;21.01;50.64;93911.09;4777001;29;20113;-92
2023/09/07 06:57:34;;;;;;;38.67;12.82;;;;;;;21.08;50.52;93898.78;4760183;30;20052;-92
2023/09/07 06:59:59;;;;;;;37.38;11.80;;;;;;;20.99;50.62;93908.16;4752207;30;20602;-94
2023/09/07 07:03:02;;;;;;;30.65;14.50;;;;;;;20.93;51.04;93910.22;4760423;29;20056;-93
2023/09/07 07:05:30;;;;;;;54.53;23.02;;;;;;;21.02;51.10;93911.84;4807660;29;20034;-92
2023/09/07 07:07:56;;;;;;;40.25;23.48;;;;;;;21.09;50.91;93914.78;4805846;29;20118;-94
2023/09/07 07:10:23;;;;;;;64.30;33.40;;;;;;;21.03;51.00;93908.59;4804681;29;20042;-94
2023/09/07 07:12:49;;;;;;;46.28;23.60;;;;;;;21.14;50.97;93908.47;4830114;29;20136;-92
2023/09/07 07:15:20;;;;;;;28.70;18.35;;;;;;;21.17;50.75;93912.19;4796284;29;20070;-94
2023/09/07 07:17:47;;;;;;;28.85;13.93;;;;;;;21.16;51.12;93910.72;4835488;29;20049;-93
2023/09/07 07:20:12;;;;;;;110.28;52.92;;;;;;;21.16;51.29;93916.22;4855063;29;20136;-90
2023/09/07 07:22:40;;;;;;;112.85;28.55;;;;;;;21.28;50.86;93911.34;4843264;29;20068;-92
2023/09/07 07:25:08;;;;;;;108.93;27.38;;;;;;;21.29;50.79;93918.34;4852417;29;20125;-93
2023/09/07 07:27:45;;;;;;;43.55;14.23;;;;;;;21.23;50.94;93918.38;4845075;29;20077;-94
2023/09/07 07:30:11;;;;;;;48.50;13.00;;;;;;;21.30;50.70;93917.06;4853483;29;20397;-92
2023/09/07 07:32:37;;;;;;;27.85;12.05;;;;;;;21.35;50.68;93921.78;4859497;29;20045;-92
2023/09/07 07:35:03;;;;;;;120.85;62.17;;;;;;;21.36;50.52;93924.00;4844982;29;20076;-92
2023/09/07 07:37:28;;;;;;;23.45;12.20;;;;;;;21.43;50.45;93912.44;4850420;29;20071;-92
2023/09/07 07:39:56;;;;;;;17.67;8.95;;;;;;;21.36;50.61;93917.75;4841487;29;20064;-92
2023/09/07 07:42:21;;;;;;;17.65;8.02;;;;;;;21.42;50.57;93918.44;4827297;29;20045;-92
2023/09/07 07:44:47;;;;;;;17.23;8.45;;;;;;;21.44;50.08;93918.66;4855053;29;20056;-91
2023/09/07 07:47:22;;;;;;;23.25;11.57;;;;;;;21.48;50.33;93917.09;4856315;29;20043;-91
2023/09/07 07:50:17;;;;;;;14.15;7.43;;;;;;;21.50;49.89;93916.59;4854784;29;20049;-91
2023/09/07 07:52:45;;;;;;;20.02;9.13;;;;;;;21.50;50.00;93911.09;4822010;29;20047;-92
2023/09/07 07:55:12;;;;;;;35.35;14.48;;;;;;;21.52;50.05;93916.81;4781464;29;20051;-92
2023/09/07 07:57:46;;;;;;;40.28;15.05;;;;;;;21.48;50.26;93925.34;4789118;29;20046;-93
2023/09/07 08:00:13;;;;;;;36.63;18.17;;;;;;;21.51;50.29;93927.06;4821284;29;20083;-95
2023/09/07 08:02:43;;;;;;;42.75;18.90;;;;;;;21.54;50.01;93917.03;4803051;29;20059;-93
2023/09/07 08:05:09;;;;;;;29.70;16.45;;;;;;;21.59;50.09;93921.72;4824900;29;20046;-93
2023/09/07 08:07:35;;;;;;;25.30;13.25;;;;;;;21.66;49.75;93920.38;4811372;29;20407;-93
2023/09/07 08:10:00;;;;;;;20.13;11.85;;;;;;;21.67;50.17;93921.88;4833407;29;20052;-92
2023/09/07 08:12:26;;;;;;;23.67;12.82;;;;;;;21.70;49.89;93918.09;4828855;29;20038;-93
2023/09/07 08:14:52;;;;;;;21.58;11.07;;;;;;;21.69;50.15;93922.09;4829517;29;20160;-91
2023/09/07 08:17:19;;;;;;;20.33;11.40;;;;;;;21.77;50.15;93926.50;4824143;29;20111;-92
2023/09/07 08:19:47;;;;;;;17.10;9.85;;;;;;;21.75;50.20;93926.28;4815568;29;20501;-92
2023/09/07 08:22:13;;;;;;;24.80;10.60;;;;;;;21.73;50.30;93930.81;4812483;29;20775;-90
2023/09/07 08:24:40;;;;;;;24.20;9.50;;;;;;;21.78;50.48;93935.50;4817766;29;20154;-92
2023/09/07 08:27:06;;;;;;;62.67;25.92;;;;;;;21.77;50.53;93932.00;4803598;29;20054;-92
2023/09/07 08:29:32;;;;;;;99.50;41.65;;;;;;;21.76;50.54;93927.00;4814468;29;20425;-91
2023/09/07 08:31:59;;;;;;;114.57;53.97;;;;;;;21.80;50.66;93928.22;4848214;29;20037;-91
2023/09/07 08:34:25;;;;;;;133.57;68.50;;;;;;;21.82;50.72;93922.19;4849938;29;20040;-91
2023/09/07 08:36:52;;;;;;;116.28;54.88;;;;;;;21.93;50.52;93919.28;4845520;29;20037;-91
2023/09/07 08:39:34;;;;;;;92.95;43.08;;;;;;;21.85;50.70;93927.41;4857931;29;20052;-92
2023/09/07 08:42:01;;;;;;;110.15;45.65;;;;;;;21.88;50.98;93925.59;4870012;29;20052;-91
2023/09/07 08:44:28;;;;;;;75.93;35.63;;;;;;;21.87;50.86;93924.09;4846662;29;20048;-92
2023/09/07 08:46:54;;;;;;;58.25;30.60;;;;;;;21.84;50.59;93923.16;4848342;29;20096;-93
2023/09/07 08:49:19;;;;;;;52.42;27.08;;;;;;;21.88;50.68;93925.59;4867207;29;20040;-93
2023/09/07 08:51:45;;;;;;;25.55;15.45;;;;;;;21.89;50.74;93924.31;4855074;29;20048;-91
2023/09/07 08:54:10;;;;;;;43.88;16.40;;;;;;;21.95;50.49;93921.50;4829765;29;20148;-92
2023/09/07 08:56:36;;;;;;;48.85;15.20;;;;;;;21.96;50.67;93923.00;4829492;29;20056;-91
2023/09/07 08:59:04;;;;;;;51.03;16.52;;;;;;;21.93;51.03;93927.53;4853415;29;20049;-91
2023/09/07 09:01:31;;;;;;;45.33;16.35;;;;;;;21.96;51.09;93915.47;4859547;29;20076;-92
2023/09/07 09:03:57;;;;;;;50.83;14.43;;;;;;;21.97;50.71;93914.22;4840440;29;20072;-91
2023/09/07 09:06:23;;;;;;;26.77;12.70;;;;;;;22.01;51.23;93924.97;4869469;29;21173;-93
2023/09/07 09:08:54;;;;;;;304.98;214.82;;;;;;;22.07;51.89;93920.13;4863822;29;20047;-92
2023/09/07 09:11:28;;;;;;;207.30;126.15;;;;;;;22.05;51.08;93915.13;4839763;29;20093;-91
2023/09/07 09:13:53;;;;;;;64.53;34.40;;;;;;;22.02;51.24;93913.44;4852140;29;20063;-92
2023/09/07 09:16:20;;;;;;;76.20;34.55;;;;;;;22.02;51.36;93916.19;4867427;29;20475;-92
2023/09/07 09:18:56;;;;;;;69.88;33.30;;;;;;;21.99;51.32;93919.94;4851221;29;20053;-91
2023/09/07 09:21:22;;;;;;;83.30;33.75;;;;;;;21.99;51.35;93919.94;4844208;29;20042;-91
2023/09/07 09:23:52;;;;;;;63.53;29.17;;;;;;;22.07;51.38;93915.34;4880203;29;20515;-91
2023/09/07 09:26:19;;;;;;;87.43;40.47;;;;;;;22.11;51.66;93918.53;4851718;29;20037;-92
2023/09/07 09:28:45;;;;;;;62.42;28.40;;;;;;;22.14;51.39;93925.75;4847512;29;20618;-93
2023/09/07 09:31:12;;;;;;;83.25;36.70;;;;;;;22.17;51.15;93926.72;4825292;29;20061;-94
2023/09/07 09:33:40;;;;;;;73.43;31.08;;;;;;;22.19;51.35;93927.69;4862765;29;20562;-95
2023/09/07 09:36:06;;;;;;;46.58;24.40;;;;;;;22.16;51.29;93922.47;4840772;29;20540;-92
2023/09/07 09:38:33;;;;;;;53.17;26.05;;;;;;;22.16;51.31;93925.22;4851805;29;20067;-91
2023/09/07 09:40:59;;;;;;;31.90;18.88;;;;;;;22.21;49.82;93925.16;4830232;29;20058;-93
2023/09/07 09:43:25;;;;;;;35.42;21.25;;;;;;;22.27;49.54;93921.59;4801660;29;20517;-91
2023/09/07 09:45:53;;;;;;;33.50;18.02;;;;;;;22.22;49.42;93917.63;4812366;29;20047;-93
2023/09/07 09:48:22;;;;;;;30.48;12.88;;;;;;;22.27;47.39;93918.81;4807900;29;20043;-92
2023/09/07 09:50:51;;;;;;;22.58;10.65;;;;;;;22.30;47.31;93921.25;4804003;29;20144;-93
2023/09/07 09:53:18;;;;;;;30.03;12.30;;;;;;;22.32;47.04;93923.47;4822793;29;20106;-92
2023/09/07 09:55:52;;;;;;;19.25;9.57;;;;;;;22.38;46.07;93905.63;4814888;29;20037;-89
2023/09/07 09:58:18;;;;;;;25.13;12.43;;;;;;;22.47;45.33;93907.25;4838295;29;20053;-92
2023/09/07 10:00:52;;;;;;;25.60;11.93;;;;;;;22.45;45.13;93909.78;4782448;29;20050;-92
2023/09/07 10:03:30;;;;;;;41.90;18.02;;;;;;;22.42;45.19;93908.06;4811169;29;20045;-92
2023/09/07 10:05:55;;;;;;;19.10;10.80;;;;;;;22.47;45.13;93912.75;4797609;29;20046;-92
2023/09/07 10:08:24;;;;;;;13.23;8.73;;;;;;;22.44;44.84;93914.53;4801664;29;20052;-92
2023/09/07 10:10:53;;;;;;;13.65;7.80;;;;;;;22.49;44.70;93904.69;4820846;29;20246;-91
2023/09/07 10:13:29;;;;;;;13.25;6.50;;;;;;;22.48;44.63;93906.72;4833621;29;20049;-91
2023/09/07 10:16:04;;;;;;;15.63;6.53;;;;;;;22.52;43.90;93917.41;4839864;29;20084;-91
2023/09/07 10:18:34;;;;;;;35.55;10.80;;;;;;;22.57;43.98;93917.31;4830717;29;20461;-91
2023/09/07 10:21:02;;;;;;;20.77;9.82;;;;;;;22.58;43.33;93918.06;4831832;29;20559;-92
2023/09/07 10:23:37;;;;;;;19.40;8.93;;;;;;;22.57;43.74;93914.56;4834967;29;20196;-93
2023/09/07 10:26:06;;;;;;;14.15;6.95;;;;;;;22.60;42.99;93906.50;4857498;29;20045;-92
2023/09/07 10:28:32;;;;;;;13.52;8.35;;;;;;;22.57;42.53;93900.78;4852486;29;20045;-93
2023/09/07 10:31:03;;;;;;;14.38;7.32;;;;;;;22.58;42.36;93920.81;4869796;29;20055;-93
2023/09/07 10:33:32;;;;;;;20.73;11.55;;;;;;;22.63;42.25;93920.00;4869507;29;20041;-92
2023/09/07 10:36:06;;;;;;;25.17;10.40;;;;;;;22.54;42.33;93917.63;4848975;29;20071;-92
2023/09/07 10:38:33;;;;;;;49.70;8.65;;;;;;;22.58;41.74;93913.28;4838756;29;20789;-92
2023/09/07 10:41:01;;;;;;;21.23;6.38;;;;;;;22.58;41.42;93910.53;4866565;29;20048;-92
2023/09/07 10:43:28;;;;;;;20.92;5.07;;;;;;;22.60;40.85;93912.03;4848903;29;20040;-93
2023/09/07 10:45:57;;;;;;;17.50;6.38;;;;;;;22.61;41.19;93908.75;4842019;29;20052;-92
2023/09/07 10:48:32;;;;;;;82.93;13.10;;;;;;;22.63;40.68;93908.97;4855081;29;20049;-93
2023/09/07 10:50:58;;;;;;;21.33;6.57;;;;;;;22.67;41.01;93909.41;4824343;29;20561;-93
2023/09/07 10:53:32;;;;;;;10.55;5.03;;;;;;;22.67;41.28;93909.41;4841102;29;20300;-93
2023/09/07 10:56:02;;;;;;;18.25;5.57;;;;;;;22.70;40.77;93907.63;4846759;29;20049;-92
2023/09/07 10:58:30;;;;;;;26.15;11.52;;;;;;;22.65;40.97;93906.44;4852155;29;20125;-92
2023/09/07 11:00:56;;;;;;;25.95;12.05;;;;;;;22.69;40.75;93917.16;4845358;29;20041;-93
2023/09/07 11:03:22;;;;;;;38.33;13.73;;;;;;;22.76;40.47;93902.72;4850763;29;20492;-91
2023/09/07 11:05:48;;;;;;;32.55;13.05;;;;;;;22.79;40.18;93912.72;4866572;29;20108;-92
2023/09/07 11:08:14;;;;;;;24.95;9.38;;;;;;;22.77;40.06;93912.47;4858239;29;20041;-92
2023/09/07 11:10:39;;;;;;;19.17;7.97;;;;;;;22.78;40.35;93900.22;4830392;29;20041;-93
2023/09/07 11:13:05;;;;;;;12.25;5.78;;;;;;;22.78;40.41;93908.47;4827296;29;20118;-92
2023/09/07 11:15:39;;;;;;;39.05;17.55;;;;;;;22.76;41.30;93902.72;4851285;29;20053;-93
2023/09/07 11:18:09;;;;;;;52.55;12.07;;;;;;;22.80;40.52;93897.69;4841305;29;20041;-93
2023/09/07 11:20:35;;;;;;;57.03;15.85;;;;;;;22.79;40.74;93896.94;4849875;29;20041;-93
2023/09/07 11:23:02;;;;;;;38.33;13.73;;;;;;;22.90;40.56;93898.75;4854570;29;20105;-91
2023/09/07 11:25:33;;;;;;;69.28;30.77;;;;;;;22.89;40.66;93908.31;4859573;29;20084;-90
2023/09/07 11:27:59;;;;;;;105.07;44.92;;;;;;;22.84;41.18;93904.38;4858847;29;20073;-94
2023/09/07 11:30:25;;;;;;;106.40;45.45;;;;;;;22.85;40.95;93897.59;4846879;29;20041;-92
2023/09/07 11:32:50;;;;;;;104.55;43.03;;;;;;;22.90;40.74;93902.25;4858367;29;20050;-94
2023/09/07 11:35:16;;;;;;;78.60;36.90;;;;;;;22.86;40.99;93901.81;4859772;29;20081;-93
2023/09/07 11:37:42;;;;;;;106.13;38.50;;;;;;;22.83;41.62;93899.38;4849318;29;20041;-89
2023/09/07 11:40:11;;;;;;;119.85;41.00;;;;;;;22.85;41.44;93902.34;4843015;29;20061;-92